createdAt,value
2024-05-09T00:02:16.297Z,7.01
2024-05-09T00:05:02.125Z,7.01
2024-05-09T00:07:48.012Z,7.02
2024-05-09T00:10:37.423Z,6.99
2024-05-09T00:13:24.895Z,6.91
2024-05-09T00:16:10.535Z,6.62
2024-05-09T00:18:56.764Z,6.51
2024-05-09T00:21:43.548Z,6.51
2024-05-09T00:24:29.628Z,6.49
2024-05-09T00:27:16.132Z,6.43
2024-05-09T00:30:02.860Z,6.45
2024-05-09T00:32:49.788Z,6.48
2024-05-09T00:35:35.715Z,6.37
2024-05-09T00:38:21.838Z,6.36
2024-05-09T00:41:07.650Z,6.34
2024-05-09T00:43:53.689Z,6.34
2024-05-09T00:46:39.359Z,6.36
2024-05-09T00:49:26.823Z,6.01
2024-05-09T00:52:12.768Z,6.36
2024-05-09T00:54:58.625Z,6.33
2024-05-09T00:57:45.232Z,6.31
2024-05-09T01:00:38.127Z,6.30
2024-05-09T01:03:27.183Z,6.28
2024-05-09T01:06:14.045Z,6.24
2024-05-09T01:09:35.680Z,6.19
2024-05-09T01:12:21.607Z,6.19
2024-05-09T01:15:07.234Z,6.21
2024-05-09T01:17:53.236Z,6.19
2024-05-09T01:20:42.503Z,6.17
2024-05-09T01:23:30.554Z,6.06
2024-05-09T01:26:17.533Z,6.03
2024-05-09T01:29:03.229Z,5.97
2024-05-09T01:31:49.045Z,5.92
2024-05-09T01:34:34.821Z,5.86
2024-05-09T01:37:20.492Z,5.81
2024-05-09T01:40:12.184Z,5.77
2024-05-09T01:43:01.115Z,5.76
2024-05-09T01:45:46.979Z,5.75
2024-05-09T01:48:32.830Z,5.76
2024-05-09T01:51:18.669Z,5.73
2024-05-09T01:54:04.558Z,5.74
2024-05-09T01:56:50.093Z,5.75
2024-05-09T01:59:35.527Z,5.70
2024-05-09T02:02:22.095Z,5.74
2024-05-09T02:05:08.124Z,5.64
2024-05-09T02:07:54.028Z,5.74
2024-05-09T02:10:40.268Z,5.74
2024-05-09T02:13:26.095Z,5.72
2024-05-09T02:16:11.706Z,5.66
2024-05-09T02:18:59.294Z,5.58
2024-05-09T02:21:45.475Z,5.60
2024-05-09T02:24:31.350Z,5.56
2024-05-09T02:27:16.754Z,5.48
2024-05-09T02:30:02.183Z,5.53
2024-05-09T02:32:49.286Z,5.52
2024-05-09T02:35:35.366Z,5.52
2024-05-09T02:38:21.189Z,5.53
2024-05-09T02:41:06.658Z,5.50
2024-05-09T02:43:52.413Z,5.51
2024-05-09T02:46:38.628Z,5.49
2024-05-09T02:49:24.613Z,5.43
2024-05-09T02:52:10.312Z,5.50
2024-05-09T02:54:56.223Z,5.49
2024-05-09T02:57:42.958Z,5.46
2024-05-09T03:00:36.891Z,5.43
2024-05-09T03:03:26.142Z,5.35
2024-05-09T03:06:12.170Z,5.41
2024-05-09T03:08:57.898Z,5.40
2024-05-09T03:11:43.433Z,5.42
2024-05-09T03:14:29.225Z,5.38
2024-05-09T03:17:15.914Z,5.36
2024-05-09T03:20:01.324Z,5.32
2024-05-09T03:22:47.640Z,5.31
2024-05-09T03:25:33.813Z,5.30
2024-05-09T03:28:19.819Z,5.28
2024-05-09T03:31:06.765Z,5.24
2024-05-09T03:33:52.987Z,5.24
2024-05-09T03:36:42.462Z,5.04
2024-05-09T03:39:28.326Z,4.83
2024-05-09T03:42:13.702Z,4.85
2024-05-09T03:44:59.946Z,4.87
2024-05-09T03:47:45.706Z,4.92
2024-05-09T03:50:35.507Z,4.93
2024-05-09T03:53:22.005Z,4.95
2024-05-09T03:56:09.808Z,4.99
2024-05-09T03:58:57.569Z,4.99
2024-05-09T04:01:43.441Z,5.06
2024-05-09T04:04:29.219Z,5.15
2024-05-09T04:07:15.093Z,5.28
2024-05-09T04:10:00.722Z,5.43
2024-05-09T04:12:46.651Z,5.61
2024-05-09T04:15:32.489Z,5.79
2024-05-09T04:18:18.631Z,5.68
2024-05-09T04:21:05.426Z,5.64
2024-05-09T04:23:51.238Z,5.01
2024-05-09T04:26:37.288Z,5.27
2024-05-09T04:29:23.417Z,5.73
2024-05-09T04:32:09.216Z,6.18
2024-05-09T04:34:55.039Z,6.40
2024-05-09T04:37:40.780Z,6.76
2024-05-09T04:40:33.095Z,6.72
2024-05-09T04:43:21.779Z,6.74
2024-05-09T04:46:07.963Z,7.02
2024-05-09T04:48:53.904Z,6.88
2024-05-09T04:51:39.452Z,6.85
2024-05-09T04:54:33.730Z,6.93
2024-05-09T04:57:22.074Z,7.04
2024-05-09T05:00:14.568Z,7.28
2024-05-09T05:03:06.672Z,7.61
2024-05-09T05:05:53.679Z,7.78
2024-05-09T05:08:39.321Z,7.97
2024-05-09T05:11:25.858Z,7.95
2024-05-09T05:14:11.738Z,8.26
2024-05-09T05:16:58.096Z,8.54
2024-05-09T05:19:43.807Z,8.65
2024-05-09T05:22:29.321Z,8.76
2024-05-09T05:25:14.997Z,8.92
2024-05-09T05:28:00.540Z,9.01
2024-05-09T05:30:46.599Z,9.31
2024-05-09T05:33:32.520Z,9.53
2024-05-09T05:36:18.579Z,9.57
2024-05-09T05:39:03.926Z,9.68
2024-05-09T05:41:49.687Z,9.70
2024-05-09T05:44:35.342Z,9.47
2024-05-09T05:47:21.363Z,9.45
2024-05-09T05:50:20.679Z,9.65
2024-05-09T05:53:13.741Z,9.96
2024-05-09T05:55:59.266Z,10.54
2024-05-09T05:58:45.002Z,10.75
2024-05-09T06:01:30.518Z,10.80
2024-05-09T06:04:16.658Z,10.81
2024-05-09T06:07:02.237Z,10.95
2024-05-09T06:09:49.955Z,11.03
2024-05-09T06:12:36.900Z,11.03
2024-05-09T06:15:22.666Z,11.01
2024-05-09T06:18:10.190Z,11.25
2024-05-09T06:20:57.118Z,11.31
2024-05-09T06:23:47.144Z,11.45
2024-05-09T06:26:33.551Z,11.35
2024-05-09T06:29:19.378Z,11.17
2024-05-09T06:32:05.687Z,11.50
2024-05-09T06:34:51.327Z,11.74
2024-05-09T06:37:37.089Z,12.01
2024-05-09T06:40:29.138Z,12.01
2024-05-09T06:43:20.215Z,12.53
2024-05-09T06:46:05.660Z,12.10
2024-05-09T06:48:51.527Z,12.52
2024-05-09T06:51:38.323Z,12.43
2024-05-09T06:54:24.187Z,12.45
2024-05-09T06:57:10.659Z,12.48
2024-05-09T06:59:56.642Z,12.59
2024-05-09T07:02:42.642Z,12.95
2024-05-09T07:05:28.428Z,13.30
2024-05-09T07:08:14.797Z,13.49
2024-05-09T07:11:01.918Z,13.33
2024-05-09T07:13:48.087Z,12.73
2024-05-09T07:16:33.910Z,13.25
2024-05-09T07:19:19.721Z,13.46
2024-05-09T07:22:05.880Z,14.04
2024-05-09T07:24:54.429Z,14.22
2024-05-09T07:27:39.988Z,14.04
2024-05-09T07:30:32.852Z,14.06
2024-05-09T07:33:22.607Z,14.49
2024-05-09T07:36:10.044Z,14.99
2024-05-09T07:38:55.579Z,15.07
2024-05-09T07:41:41.328Z,14.69
2024-05-09T07:44:27.222Z,14.49
2024-05-09T07:48:28.041Z,13.95
2024-05-09T07:53:36.679Z,14.81
2024-05-09T07:56:14.970Z,15.19
2024-05-09T07:59:01.764Z,15.26
2024-05-09T08:01:47.571Z,15.07
2024-05-09T08:04:33.385Z,15.19
2024-05-09T08:07:19.168Z,15.30
2024-05-09T08:10:08.036Z,15.53
2024-05-09T08:12:54.124Z,15.61
2024-05-09T08:15:40.438Z,15.42
2024-05-09T08:18:26.771Z,15.46
2024-05-09T08:21:12.477Z,15.69
2024-05-09T08:23:58.611Z,15.94
2024-05-09T08:26:44.932Z,16.24
2024-05-09T08:29:30.741Z,16.56
2024-05-09T08:32:16.343Z,16.98
2024-05-09T08:35:02.409Z,17.08
2024-05-09T08:37:49.126Z,17.20
2024-05-09T08:40:36.860Z,17.50
2024-05-09T08:43:26.785Z,17.14
2024-05-09T08:46:12.439Z,17.36
2024-05-09T08:48:59.747Z,16.95
2024-05-09T08:51:45.782Z,16.67
2024-05-09T08:54:31.687Z,16.78
2024-05-09T08:57:18.338Z,16.43
2024-05-09T09:00:12.511Z,17.08
2024-05-09T09:03:02.856Z,17.19
2024-05-09T09:05:59.030Z,17.57
2024-05-09T09:08:46.253Z,17.77
2024-05-09T09:11:31.719Z,17.81
2024-05-09T09:14:17.553Z,17.39
2024-05-09T09:17:12.834Z,17.22
2024-05-09T09:20:00.222Z,16.43
2024-05-09T09:22:46.477Z,16.63
2024-05-09T09:25:32.330Z,17.11
2024-05-09T09:28:18.004Z,17.57
2024-05-09T09:31:04.273Z,17.63
2024-05-09T09:33:50.223Z,18.04
2024-05-09T09:36:39.191Z,18.14
2024-05-09T09:39:28.078Z,18.24
2024-05-09T09:42:17.380Z,18.27
2024-05-09T09:45:05.874Z,18.29
2024-05-09T09:47:55.812Z,18.08
2024-05-09T09:50:42.081Z,18.04
2024-05-09T09:53:31.851Z,18.65
2024-05-09T09:56:18.571Z,18.93
2024-05-09T09:59:04.730Z,18.71
2024-05-09T10:01:50.636Z,18.39
2024-05-09T10:04:36.933Z,18.46
2024-05-09T10:07:23.499Z,18.47
2024-05-09T10:10:13.913Z,18.52
2024-05-09T10:13:06.125Z,18.77
2024-05-09T10:15:54.112Z,18.68
2024-05-09T10:18:40.736Z,18.34
2024-05-09T10:21:27.243Z,18.24
2024-05-09T10:24:13.109Z,18.40
2024-05-09T10:27:04.412Z,19.17
2024-05-09T10:29:57.374Z,19.87
2024-05-09T10:32:45.148Z,20.43
2024-05-09T10:35:32.159Z,20.39
2024-05-09T10:38:18.415Z,19.79
2024-05-09T10:41:05.376Z,20.10
2024-05-09T10:43:52.135Z,20.12
2024-05-09T10:46:38.559Z,20.41
2024-05-09T10:49:24.359Z,20.03
2024-05-09T10:52:10.178Z,19.11
2024-05-09T10:54:56.205Z,18.86
2024-05-09T10:57:41.879Z,18.48
2024-05-09T11:00:35.787Z,18.52
2024-05-09T11:03:27.530Z,18.55
2024-05-09T11:06:15.658Z,18.84
2024-05-09T11:09:02.267Z,18.99
2024-05-09T11:11:48.183Z,19.77
2024-05-09T11:14:34.593Z,20.34
2024-05-09T11:17:20.289Z,20.02
2024-05-09T11:20:13.596Z,19.82
2024-05-09T11:23:06.902Z,20.35
2024-05-09T11:25:54.086Z,19.90
2024-05-09T11:28:44.445Z,19.65
2024-05-09T11:31:30.497Z,18.98
2024-05-09T11:34:16.473Z,19.54
2024-05-09T11:37:02.547Z,19.64
2024-05-09T11:39:48.591Z,19.68
2024-05-09T11:42:34.419Z,19.30
2024-05-09T11:45:19.916Z,19.86
2024-05-09T11:48:06.907Z,20.17
2024-05-09T11:50:54.993Z,20.17
2024-05-09T11:53:40.913Z,20.43
2024-05-09T11:56:26.824Z,20.48
2024-05-09T11:59:12.795Z,20.42
2024-05-09T12:01:58.498Z,20.72
2024-05-09T12:04:44.504Z,20.92
2024-05-09T12:07:31.766Z,20.08
2024-05-09T12:10:22.275Z,20.17
2024-05-09T12:13:12.037Z,20.22
2024-05-09T12:15:58.683Z,20.18
2024-05-09T12:18:45.139Z,20.24
2024-05-09T12:21:30.991Z,20.27
2024-05-09T12:24:18.450Z,19.77
2024-05-09T12:27:05.013Z,19.78
2024-05-09T12:29:50.787Z,19.77
2024-05-09T12:32:36.590Z,19.15
2024-05-09T12:35:22.330Z,19.25
2024-05-09T12:38:07.898Z,19.75
2024-05-09T12:40:53.465Z,19.44
2024-05-09T12:43:39.179Z,19.29
2024-05-09T12:46:25.291Z,19.31
2024-05-09T12:49:11.216Z,19.72
2024-05-09T12:51:57.658Z,20.47
2024-05-09T12:54:44.262Z,20.13
2024-05-09T12:57:30.428Z,20.12
2024-05-09T13:00:23.770Z,20.55
2024-05-09T13:03:14.658Z,20.21
2024-05-09T13:06:01.430Z,20.33
2024-05-09T13:08:47.044Z,20.07
2024-05-09T13:11:32.879Z,20.09
2024-05-09T13:14:18.830Z,20.54
2024-05-09T13:17:05.217Z,20.76
2024-05-09T13:19:50.770Z,20.56
2024-05-09T13:22:36.231Z,20.76
2024-05-09T13:25:22.199Z,20.11
2024-05-09T13:28:08.147Z,19.90
2024-05-09T13:30:54.253Z,19.62
2024-05-09T13:33:40.127Z,19.49
2024-05-09T13:36:26.047Z,19.42
2024-05-09T13:39:13.164Z,19.39
2024-05-09T13:41:59.389Z,19.09
2024-05-09T13:44:44.833Z,19.52
2024-05-09T13:47:31.209Z,19.81
2024-05-09T13:50:27.767Z,20.00
2024-05-09T13:53:19.101Z,19.64
2024-05-09T13:56:05.230Z,19.74
2024-05-09T13:58:51.674Z,20.06
2024-05-09T14:01:37.388Z,19.78
2024-05-09T14:04:23.106Z,19.61
2024-05-09T14:07:08.939Z,19.21
2024-05-09T14:09:54.732Z,18.94
2024-05-09T14:12:40.573Z,18.55
2024-05-09T14:15:28.002Z,18.80
2024-05-09T14:18:14.628Z,18.98
2024-05-09T14:21:01.782Z,18.90
2024-05-09T14:23:48.231Z,18.49
2024-05-09T14:26:33.675Z,18.54
2024-05-09T14:29:19.842Z,19.02
2024-05-09T14:32:06.043Z,18.63
2024-05-09T14:34:51.408Z,19.14
2024-05-09T14:37:39.644Z,19.27
2024-05-09T14:40:36.354Z,19.36
2024-05-09T14:43:29.127Z,19.00
2024-05-09T14:46:15.044Z,19.20
2024-05-09T14:49:01.176Z,19.01
2024-05-09T14:51:48.381Z,19.00
2024-05-09T14:54:34.325Z,19.35
2024-05-09T14:57:20.695Z,19.49
2024-05-09T15:00:09.134Z,19.18
2024-05-09T15:03:00.117Z,18.89
2024-05-09T15:05:47.050Z,19.40
2024-05-09T15:08:33.202Z,19.81
2024-05-09T15:11:19.294Z,19.89
2024-05-09T15:14:04.891Z,20.15
2024-05-09T15:16:50.672Z,20.48
2024-05-09T15:19:37.234Z,20.58
2024-05-09T15:22:23.050Z,20.55
2024-05-09T15:25:08.878Z,20.21
2024-05-09T15:27:54.437Z,20.40
2024-05-09T15:30:42.932Z,20.95
2024-05-09T15:33:31.290Z,21.23
2024-05-09T15:36:17.371Z,20.95
2024-05-09T15:39:02.955Z,20.19
2024-05-09T15:41:48.408Z,19.64
2024-05-09T15:44:35.699Z,19.52
2024-05-09T15:47:21.992Z,19.34
2024-05-09T15:50:12.069Z,19.22
2024-05-09T15:53:03.151Z,18.74
2024-05-09T15:55:49.382Z,18.63
2024-05-09T15:58:34.916Z,19.21
2024-05-09T16:01:21.187Z,19.13
2024-05-09T16:04:07.414Z,19.21
2024-05-09T16:06:53.803Z,19.60
2024-05-09T16:09:40.140Z,19.38
2024-05-09T16:12:26.360Z,19.56
2024-05-09T16:15:11.960Z,20.00
2024-05-09T16:17:59.058Z,20.10
2024-05-09T16:20:46.459Z,19.94
2024-05-09T16:23:34.601Z,19.72
2024-05-09T16:26:21.191Z,19.35
2024-05-09T16:29:06.995Z,18.75
2024-05-09T16:31:52.488Z,18.41
2024-05-09T16:34:38.444Z,18.33
2024-05-09T16:37:26.522Z,18.16
2024-05-09T16:40:22.157Z,18.02
2024-05-09T16:43:15.802Z,17.94
2024-05-09T16:46:01.966Z,17.93
2024-05-09T16:48:47.873Z,18.00
2024-05-09T16:51:33.380Z,18.09
2024-05-09T16:54:18.927Z,18.18
2024-05-09T16:57:05.219Z,17.92
2024-05-09T16:59:51.672Z,17.46
2024-05-09T17:02:37.163Z,17.37
2024-05-09T17:05:23.317Z,17.11
2024-05-09T17:08:09.003Z,17.26
2024-05-09T17:10:55.289Z,17.55
2024-05-09T17:13:41.982Z,17.87
2024-05-09T17:16:28.715Z,18.08
2024-05-09T17:19:14.397Z,18.48
2024-05-09T17:22:00.540Z,18.39
2024-05-09T17:24:46.664Z,18.55
2024-05-09T17:27:32.540Z,18.70
2024-05-09T17:30:28.318Z,18.14
2024-05-09T17:33:18.229Z,17.69
2024-05-09T17:36:04.543Z,17.30
2024-05-09T17:38:50.535Z,17.16
2024-05-09T17:41:35.925Z,17.09
2024-05-09T17:44:21.486Z,17.24
2024-05-09T17:47:07.335Z,17.04
2024-05-09T17:49:53.264Z,16.93
2024-05-09T17:52:39.417Z,16.87
2024-05-09T17:55:25.362Z,16.87
2024-05-09T17:58:12.220Z,16.54
2024-05-09T18:00:58.423Z,16.29
2024-05-09T18:03:44.497Z,16.21
2024-05-09T18:06:30.285Z,16.07
2024-05-09T18:09:15.995Z,16.12
2024-05-09T18:12:01.613Z,16.05
2024-05-09T18:14:47.021Z,16.09
2024-05-09T18:17:32.945Z,16.04
2024-05-09T18:20:31.951Z,15.98
2024-05-09T18:23:26.334Z,15.93
2024-05-09T18:26:12.498Z,15.84
2024-05-09T18:28:58.430Z,15.76
2024-05-09T18:31:44.444Z,15.67
2024-05-09T18:34:30.069Z,15.57
2024-05-09T18:37:16.634Z,15.46
2024-05-09T18:40:02.345Z,15.40
2024-05-09T18:42:49.214Z,15.36
2024-05-09T18:45:35.151Z,15.23
2024-05-09T18:48:21.333Z,15.13
2024-05-09T18:51:07.281Z,14.99
2024-05-09T18:53:53.152Z,15.00
2024-05-09T18:56:40.606Z,14.91
2024-05-09T18:59:26.465Z,14.84
2024-05-09T19:02:18.814Z,14.70
2024-05-09T19:05:05.739Z,14.66
2024-05-09T19:07:51.839Z,14.60
2024-05-09T19:10:39.624Z,14.55
2024-05-09T19:13:25.784Z,14.44
2024-05-09T19:16:11.672Z,14.29
2024-05-09T19:18:57.647Z,14.25
2024-05-09T19:21:43.542Z,14.25
2024-05-09T19:24:29.485Z,14.23
2024-05-09T19:27:15.558Z,14.07
2024-05-09T19:30:01.758Z,14.08
2024-05-09T19:32:50.056Z,14.03
2024-05-09T19:35:36.135Z,14.43
2024-05-09T19:38:21.623Z,14.45
2024-05-09T19:41:08.394Z,14.48
2024-05-09T19:43:53.988Z,14.35
2024-05-09T19:46:39.475Z,14.43
2024-05-09T19:49:25.050Z,14.41
2024-05-09T19:52:10.917Z,14.41
2024-05-09T19:54:57.081Z,14.41
2024-05-09T19:57:43.463Z,14.34
2024-05-09T20:00:34.955Z,14.21
2024-05-09T20:03:22.222Z,14.17
2024-05-09T20:06:08.285Z,14.15
2024-05-09T20:08:53.724Z,14.03
2024-05-09T20:11:39.389Z,14.16
2024-05-09T20:14:25.271Z,14.19
2024-05-09T20:17:10.926Z,13.91
2024-05-09T20:19:56.814Z,14.05
2024-05-09T20:22:42.551Z,13.98
2024-05-09T20:25:28.551Z,13.86
2024-05-09T20:28:15.578Z,13.69
2024-05-09T20:31:03.236Z,13.60
2024-05-09T20:33:49.004Z,13.48
2024-05-09T20:36:34.953Z,13.37
2024-05-09T20:39:25.511Z,13.35
2024-05-09T20:42:11.496Z,13.30
2024-05-09T20:44:57.364Z,13.17
2024-05-09T20:47:43.362Z,13.12
2024-05-09T20:50:36.914Z,13.06
2024-05-09T20:53:25.838Z,12.74
2024-05-09T20:56:11.274Z,12.27
2024-05-09T20:59:00.057Z,12.22
2024-05-09T21:01:48.648Z,12.30
2024-05-09T21:04:35.411Z,12.32
2024-05-09T21:07:20.796Z,12.01
2024-05-09T21:10:15.209Z,12.01
2024-05-09T21:13:06.677Z,11.76
2024-05-09T21:15:53.215Z,12.18
2024-05-09T21:18:39.129Z,12.14
2024-05-09T21:21:24.835Z,12.04
2024-05-09T21:24:10.955Z,11.90
2024-05-09T21:26:56.700Z,11.99
2024-05-09T21:29:42.499Z,11.93
2024-05-09T21:32:28.225Z,11.88
2024-05-09T21:35:14.260Z,11.94
2024-05-09T21:38:00.432Z,12.08
2024-05-09T21:40:45.985Z,12.01
2024-05-09T21:43:31.808Z,12.03
2024-05-09T21:46:18.587Z,12.03
2024-05-09T21:49:04.327Z,12.06
2024-05-09T21:51:50.311Z,11.96
2024-05-09T21:54:35.993Z,11.81
2024-05-09T21:57:21.530Z,11.88
2024-05-09T22:00:11.143Z,11.88
2024-05-09T22:02:57.214Z,11.87
2024-05-09T22:05:42.849Z,11.87
2024-05-09T22:08:28.673Z,11.87
2024-05-09T22:11:14.587Z,11.60
2024-05-09T22:14:00.205Z,11.55
2024-05-09T22:16:48.326Z,11.51
2024-05-09T22:19:34.538Z,11.40
2024-05-09T22:22:20.375Z,11.10
2024-05-09T22:25:06.322Z,11.15
2024-05-09T22:27:51.836Z,11.11
2024-05-09T22:30:39.737Z,11.03
2024-05-09T22:33:26.312Z,10.95
2024-05-09T22:36:12.252Z,10.72
2024-05-09T22:38:58.424Z,10.83
2024-05-09T22:41:44.696Z,10.91
2024-05-09T22:44:30.061Z,10.96
2024-05-09T22:47:15.970Z,10.92
2024-05-09T22:50:01.642Z,10.85
2024-05-09T22:52:47.380Z,10.79
2024-05-09T22:55:32.612Z,10.68
2024-05-09T22:58:18.680Z,10.59
2024-05-09T23:01:04.878Z,10.36
2024-05-09T23:03:50.792Z,10.33
2024-05-09T23:06:40.692Z,10.28
2024-05-09T23:09:26.573Z,10.11
2024-05-09T23:12:13.239Z,9.64
2024-05-09T23:14:59.227Z,9.92
2024-05-09T23:17:45.474Z,9.93
2024-05-09T23:20:37.462Z,9.87
2024-05-09T23:23:25.081Z,9.78
2024-05-09T23:26:10.888Z,9.70
2024-05-09T23:28:58.625Z,9.65
2024-05-09T23:31:43.953Z,9.39
2024-05-09T23:34:29.896Z,9.57
2024-05-09T23:37:15.796Z,9.57
2024-05-09T23:40:01.432Z,9.50
2024-05-09T23:42:47.620Z,9.27
2024-05-09T23:45:33.603Z,9.02
2024-05-09T23:48:20.520Z,8.99
2024-05-09T23:51:06.195Z,9.02
2024-05-09T23:53:55.259Z,9.06
2024-05-09T23:56:40.928Z,8.97
2024-05-09T23:59:26.690Z,8.97
